createdAt,value
2023-03-10T00:01:25.594Z,98806.22
2023-03-10T00:03:56.290Z,98808.69
2023-03-10T00:06:28.127Z,98816.34
2023-03-10T00:08:56.366Z,98824.66
2023-03-10T00:11:24.288Z,98821.13
2023-03-10T00:13:52.184Z,98822.56
2023-03-10T00:16:27.490Z,98812.47
2023-03-10T00:18:55.634Z,98831.03
2023-03-10T00:21:30.011Z,98828.00
2023-03-10T00:23:58.808Z,98822.09
2023-03-10T00:26:30.350Z,98807.69
2023-03-10T00:28:58.036Z,98804.16
2023-03-10T00:31:31.317Z,98810.63
2023-03-10T00:33:59.723Z,98801.09
2023-03-10T00:36:29.899Z,98791.03
2023-03-10T00:39:00.860Z,98785.00
2023-03-10T00:41:36.477Z,98787.00
2023-03-10T00:44:04.669Z,98793.75
2023-03-10T00:46:34.356Z,98791.09
2023-03-10T00:49:02.001Z,98786.63
2023-03-10T00:51:29.724Z,98784.44
2023-03-10T00:53:57.230Z,98787.53
2023-03-10T00:56:26.846Z,98786.03
2023-03-10T00:59:00.219Z,98784.19
2023-03-10T01:01:30.933Z,98791.56
2023-03-10T01:04:05.448Z,98788.63
2023-03-10T01:06:36.710Z,98787.53
2023-03-10T01:09:06.175Z,98799.94
2023-03-10T01:11:35.538Z,98801.53
2023-03-10T01:14:06.163Z,98805.03
2023-03-10T01:16:33.956Z,98798.84
2023-03-10T01:19:01.961Z,98796.88
2023-03-10T01:21:35.741Z,98794.38
2023-03-10T01:24:05.198Z,98801.09
2023-03-10T01:26:32.828Z,98795.41
2023-03-10T01:29:00.509Z,98792.78
2023-03-10T01:31:28.332Z,98787.41
2023-03-10T01:33:57.125Z,98790.34
2023-03-10T01:36:28.434Z,98796.09
2023-03-10T01:38:57.658Z,98792.91
2023-03-10T01:41:25.835Z,98797.44
2023-03-10T01:43:56.515Z,98803.06
2023-03-10T01:46:41.559Z,98800.28
2023-03-10T01:49:45.170Z,98802.47
2023-03-10T01:52:22.223Z,98802.56
2023-03-10T01:55:12.563Z,98803.41
2023-03-10T01:57:52.656Z,98797.25
2023-03-10T02:00:21.807Z,98803.13
2023-03-10T02:02:54.583Z,98810.50
2023-03-10T02:05:22.930Z,98816.34
2023-03-10T02:07:51.579Z,98813.66
2023-03-10T02:10:21.938Z,98812.00
2023-03-10T02:12:52.763Z,98805.25
2023-03-10T02:15:21.210Z,98803.19
2023-03-10T02:17:51.869Z,98796.56
2023-03-10T02:20:22.261Z,98795.06
2023-03-10T02:22:50.961Z,98792.97
2023-03-10T02:25:39.026Z,98800.50
2023-03-10T02:28:06.893Z,98798.16
2023-03-10T02:30:54.199Z,98804.47
2023-03-10T02:33:30.418Z,98810.69
2023-03-10T02:36:18.296Z,98808.78
2023-03-10T02:38:46.494Z,98816.56
2023-03-10T02:41:37.154Z,98816.38
2023-03-10T02:44:12.079Z,98819.31
2023-03-10T02:46:39.703Z,98808.97
2023-03-10T02:49:10.857Z,98812.69
2023-03-10T02:51:47.821Z,98809.09
2023-03-10T02:54:18.153Z,98814.50
2023-03-10T02:56:45.973Z,98820.31
2023-03-10T02:59:16.358Z,98818.91
2023-03-10T03:01:48.712Z,98823.97
2023-03-10T03:04:18.904Z,98821.63
2023-03-10T03:06:48.790Z,98834.53
2023-03-10T03:09:16.472Z,98836.91
2023-03-10T03:11:46.094Z,98849.28
2023-03-10T03:14:14.213Z,98839.84
2023-03-10T03:16:41.779Z,98844.41
2023-03-10T03:19:11.420Z,98831.44
2023-03-10T03:21:40.290Z,98839.56
2023-03-10T03:24:08.053Z,98828.66
2023-03-10T03:26:35.676Z,98822.63
2023-03-10T03:29:12.139Z,98821.81
2023-03-10T03:31:41.337Z,98828.00
2023-03-10T03:34:16.754Z,98817.09
2023-03-10T03:36:46.222Z,98818.97
2023-03-10T03:39:17.687Z,98813.44
2023-03-10T03:41:53.306Z,98803.13
2023-03-10T03:44:21.677Z,98801.88
2023-03-10T03:46:50.440Z,98811.69
2023-03-10T03:49:18.569Z,98800.34
2023-03-10T03:51:46.832Z,98799.44
2023-03-10T03:54:14.421Z,98793.97
2023-03-10T03:56:42.250Z,98793.63
2023-03-10T03:59:12.022Z,98794.81
2023-03-10T04:01:42.598Z,98797.25
2023-03-10T04:04:10.169Z,98806.59
2023-03-10T04:06:39.120Z,98808.44
2023-03-10T04:09:10.521Z,98808.84
2023-03-10T04:11:39.051Z,98807.00
2023-03-10T04:14:06.786Z,98805.88
2023-03-10T04:16:34.852Z,98806.91
2023-03-10T04:19:07.638Z,98816.72
2023-03-10T04:21:37.731Z,98808.13
2023-03-10T04:24:06.092Z,98805.75
2023-03-10T04:26:36.388Z,98810.72
2023-03-10T04:29:05.292Z,98808.28
2023-03-10T04:31:35.207Z,98805.06
2023-03-10T04:34:03.919Z,98805.75
2023-03-10T04:36:32.630Z,98807.88
2023-03-10T04:39:02.525Z,98796.19
2023-03-10T04:41:32.219Z,98795.00
2023-03-10T04:43:59.923Z,98791.88
2023-03-10T04:46:28.570Z,98789.31
2023-03-10T04:48:57.336Z,98794.84
2023-03-10T04:51:25.391Z,98787.22
2023-03-10T04:53:55.195Z,98793.56
2023-03-10T04:56:22.842Z,98806.72
2023-03-10T04:58:50.355Z,98809.72
2023-03-10T05:01:18.093Z,98802.66
2023-03-10T05:03:50.072Z,98808.84
2023-03-10T05:06:22.658Z,98804.22
2023-03-10T05:09:01.022Z,98802.59
2023-03-10T05:11:29.921Z,98805.25
2023-03-10T05:13:57.641Z,98812.56
2023-03-10T05:16:28.262Z,98815.78
2023-03-10T05:18:55.824Z,98823.53
2023-03-10T05:21:27.325Z,98814.13
2023-03-10T05:23:56.808Z,98817.00
2023-03-10T05:26:32.059Z,98820.56
2023-03-10T05:29:01.073Z,98821.47
2023-03-10T05:31:40.426Z,98832.50
2023-03-10T05:34:14.220Z,98824.81
2023-03-10T05:36:45.169Z,98818.34
2023-03-10T05:39:13.262Z,98814.69
2023-03-10T05:41:45.328Z,98809.31
2023-03-10T05:44:13.189Z,98811.81
2023-03-10T05:46:41.604Z,98809.00
2023-03-10T05:49:09.225Z,98803.81
2023-03-10T05:51:36.730Z,98803.19
2023-03-10T05:54:06.364Z,98795.22
2023-03-10T05:56:34.356Z,98803.34
2023-03-10T05:59:04.043Z,98801.94
2023-03-10T06:01:34.847Z,98808.50
2023-03-10T06:04:02.420Z,98804.31
2023-03-10T06:06:30.393Z,98807.44
2023-03-10T06:08:58.576Z,98815.84
2023-03-10T06:11:26.146Z,98799.25
2023-03-10T06:13:54.016Z,98808.09
2023-03-10T06:16:21.627Z,98806.31
2023-03-10T06:18:54.649Z,98803.00
2023-03-10T06:21:22.822Z,98799.53
2023-03-10T06:23:50.447Z,98804.59
2023-03-10T06:26:18.631Z,98798.53
2023-03-10T06:28:47.533Z,98800.72
2023-03-10T06:31:19.807Z,98806.28
2023-03-10T06:33:47.816Z,98810.63
2023-03-10T06:36:17.038Z,98806.00
2023-03-10T06:38:45.276Z,98814.03
2023-03-10T06:41:13.530Z,98814.41
2023-03-10T06:43:41.263Z,98812.50
2023-03-10T06:46:11.043Z,98813.63
2023-03-10T06:48:40.963Z,98817.69
2023-03-10T06:51:13.281Z,98815.28
2023-03-10T06:53:40.943Z,98815.59
2023-03-10T06:56:15.271Z,98819.09
2023-03-10T06:58:43.166Z,98822.38
2023-03-10T07:01:26.808Z,98822.34
2023-03-10T07:03:55.212Z,98821.81
2023-03-10T07:06:23.846Z,98815.44
2023-03-10T07:08:52.830Z,98801.94
2023-03-10T07:11:22.786Z,98811.63
2023-03-10T07:13:50.631Z,98808.72
2023-03-10T07:16:18.573Z,98814.63
2023-03-10T07:18:46.246Z,98808.22
2023-03-10T07:21:20.134Z,98808.13
2023-03-10T07:23:48.375Z,98806.84
2023-03-10T07:26:18.972Z,98802.50
2023-03-10T07:28:47.485Z,98796.94
2023-03-10T07:31:16.404Z,98800.19
2023-03-10T07:33:44.231Z,98795.47
2023-03-10T07:36:16.027Z,98798.25
2023-03-10T07:38:43.887Z,98800.81
2023-03-10T07:41:18.344Z,98802.25
2023-03-10T07:43:46.924Z,98808.94
2023-03-10T07:46:19.526Z,98814.63
2023-03-10T07:48:47.656Z,98808.94
2023-03-10T07:51:18.262Z,98808.38
2023-03-10T07:53:46.157Z,98811.59
2023-03-10T07:56:15.869Z,98798.69
2023-03-10T07:58:43.703Z,98806.94
2023-03-10T08:01:20.582Z,98811.59
2023-03-10T08:03:48.840Z,98808.91
2023-03-10T08:06:22.893Z,98798.47
2023-03-10T08:08:51.799Z,98808.44
2023-03-10T08:11:20.433Z,98803.66
2023-03-10T08:13:49.094Z,98796.59
2023-03-10T08:16:20.442Z,98797.16
2023-03-10T08:18:49.329Z,98800.38
2023-03-10T08:21:17.148Z,98800.00
2023-03-10T08:23:44.794Z,98798.66
2023-03-10T08:26:18.243Z,98799.28
2023-03-10T08:28:46.205Z,98798.09
2023-03-10T08:31:20.817Z,98788.84
2023-03-10T08:33:49.463Z,98780.16
2023-03-10T08:36:23.172Z,98783.25
2023-03-10T08:38:52.839Z,98772.84
2023-03-10T08:41:31.099Z,98765.56
2023-03-10T08:44:00.090Z,98773.00
2023-03-10T08:46:30.674Z,98766.19
2023-03-10T08:48:59.208Z,98764.13
2023-03-10T08:51:28.395Z,98767.75
2023-03-10T08:53:56.570Z,98767.09
2023-03-10T08:56:27.865Z,98761.03
2023-03-10T08:59:00.800Z,98760.44
2023-03-10T09:01:32.653Z,98746.06
2023-03-10T09:04:01.411Z,98746.00
2023-03-10T09:06:29.762Z,98748.78
2023-03-10T09:09:01.618Z,98735.16
2023-03-10T09:11:32.864Z,98739.78
2023-03-10T09:14:02.030Z,98736.41
2023-03-10T09:16:30.527Z,98731.97
2023-03-10T09:19:00.230Z,98724.16
2023-03-10T09:21:33.244Z,98715.84
2023-03-10T09:24:02.596Z,98710.81
2023-03-10T09:26:30.529Z,98712.06
2023-03-10T09:28:58.168Z,98716.69
2023-03-10T09:31:33.026Z,98709.16
2023-03-10T09:34:01.613Z,98700.47
2023-03-10T09:36:30.156Z,98698.97
2023-03-10T09:38:59.266Z,98690.97
2023-03-10T09:41:48.825Z,98688.69
2023-03-10T09:44:26.576Z,98678.78
2023-03-10T09:47:21.952Z,98674.13
2023-03-10T09:49:58.694Z,98675.63
2023-03-10T09:52:52.843Z,98665.59
2023-03-10T09:55:31.382Z,98656.28
2023-03-10T09:57:59.362Z,98657.78
2023-03-10T10:00:42.003Z,98643.69
2023-03-10T10:03:23.881Z,98641.69
2023-03-10T10:05:54.257Z,98642.09
2023-03-10T10:08:29.325Z,98634.41
2023-03-10T10:11:00.284Z,98626.63
2023-03-10T10:13:31.101Z,98622.31
2023-03-10T10:16:24.396Z,98619.88
2023-03-10T10:19:05.598Z,98614.28
2023-03-10T10:21:43.733Z,98610.00
2023-03-10T10:24:11.827Z,98606.09
2023-03-10T10:26:39.469Z,98605.34
2023-03-10T10:29:30.619Z,98596.13
2023-03-10T10:32:12.527Z,98602.44
2023-03-10T10:34:45.745Z,98587.88
2023-03-10T10:37:37.211Z,98582.34
2023-03-10T10:40:26.540Z,98583.38
2023-03-10T10:42:57.202Z,98570.13
2023-03-10T10:45:37.489Z,98560.25
2023-03-10T10:48:06.229Z,98556.13
2023-03-10T10:50:36.694Z,98550.66
2023-03-10T10:53:26.689Z,98546.31
2023-03-10T10:56:07.083Z,98529.50
2023-03-10T10:58:38.672Z,98521.72
2023-03-10T11:01:09.376Z,98508.22
2023-03-10T11:03:51.376Z,98507.97
2023-03-10T11:06:29.752Z,98488.50
2023-03-10T11:09:15.802Z,98477.25
2023-03-10T11:12:14.721Z,98474.97
2023-03-10T11:15:07.035Z,98448.56
2023-03-10T11:17:43.330Z,98450.91
2023-03-10T11:20:29.104Z,98435.28
2023-03-10T11:23:21.102Z,98435.00
2023-03-10T11:26:09.580Z,98423.25
2023-03-10T11:29:05.148Z,98420.03
2023-03-10T11:32:00.202Z,98412.50
2023-03-10T11:34:35.978Z,98410.41
2023-03-10T11:37:30.125Z,98409.22
2023-03-10T11:40:31.742Z,98403.88
2023-03-10T11:43:19.073Z,98393.91
2023-03-10T11:45:54.966Z,98382.22
2023-03-10T11:48:43.646Z,98385.03
2023-03-10T11:51:42.731Z,98379.69
2023-03-10T11:54:33.352Z,98376.94
2023-03-10T11:57:06.654Z,98374.63
2023-03-10T11:59:37.265Z,98369.25
2023-03-10T12:02:12.819Z,98364.19
2023-03-10T12:05:02.516Z,98362.03
2023-03-10T12:07:39.565Z,98353.41
2023-03-10T12:10:12.967Z,98353.41
2023-03-10T12:12:46.738Z,98354.19
2023-03-10T12:15:22.667Z,98344.75
2023-03-10T12:17:56.422Z,98352.50
2023-03-10T12:20:30.845Z,98355.44
2023-03-10T12:23:11.058Z,98355.25
2023-03-10T12:25:38.655Z,98353.97
2023-03-10T12:28:25.156Z,98360.03
2023-03-10T12:31:38.012Z,98359.41
2023-03-10T12:34:28.046Z,98352.75
2023-03-10T12:37:22.923Z,98343.88
2023-03-10T12:39:51.181Z,98334.00
2023-03-10T12:42:39.778Z,98341.72
2023-03-10T12:45:30.621Z,98341.03
2023-03-10T12:48:11.990Z,98341.47
2023-03-10T12:50:54.036Z,98333.31
2023-03-10T12:54:21.387Z,98338.97
2023-03-10T12:57:09.353Z,98332.91
2023-03-10T12:59:51.749Z,98335.91
2023-03-10T13:02:49.797Z,98342.00
2023-03-10T13:05:33.087Z,98339.78
2023-03-10T13:08:13.947Z,98346.41
2023-03-10T13:10:43.258Z,98339.28
2023-03-10T13:13:19.061Z,98333.72
2023-03-10T13:16:00.721Z,98326.13
2023-03-10T13:18:49.314Z,98311.78
2023-03-10T13:21:35.554Z,98296.47
2023-03-10T13:24:20.447Z,98297.22
2023-03-10T13:26:48.236Z,98296.16
2023-03-10T13:29:21.146Z,98283.56
2023-03-10T13:31:56.559Z,98274.06
2023-03-10T13:34:28.432Z,98268.41
2023-03-10T13:37:07.358Z,98271.94
2023-03-10T13:39:35.115Z,98261.28
2023-03-10T13:42:45.313Z,98258.66
2023-03-10T13:45:25.802Z,98263.66
2023-03-10T13:47:56.055Z,98263.66
2023-03-10T13:50:28.528Z,98259.91
2023-03-10T13:52:59.795Z,98256.09
2023-03-10T13:55:33.220Z,98259.91
2023-03-10T13:58:02.259Z,98262.63
2023-03-10T14:00:54.795Z,98259.97
2023-03-10T14:03:23.083Z,98257.72
2023-03-10T14:05:51.328Z,98252.34
2023-03-10T14:08:31.259Z,98245.88
2023-03-10T14:11:39.678Z,98244.16
2023-03-10T14:14:09.721Z,98254.38
2023-03-10T14:17:04.336Z,98251.00
2023-03-10T14:19:43.723Z,98246.91
2023-03-10T14:22:38.168Z,98253.34
2023-03-10T14:25:14.571Z,98257.91
2023-03-10T14:28:04.114Z,98244.94
2023-03-10T14:30:34.486Z,98248.81
2023-03-10T14:33:02.701Z,98237.50
2023-03-10T14:35:31.597Z,98234.13
2023-03-10T14:37:59.220Z,98232.22
2023-03-10T14:40:27.469Z,98225.06
2023-03-10T14:43:19.747Z,98209.97
2023-03-10T14:45:50.593Z,98203.56
2023-03-10T14:48:22.074Z,98208.06
2023-03-10T14:50:50.907Z,98204.28
2023-03-10T14:53:24.069Z,98200.47
2023-03-10T14:55:56.370Z,98194.75
2023-03-10T14:58:34.852Z,98195.09
2023-03-10T15:01:07.273Z,98192.13
2023-03-10T15:03:36.157Z,98186.88
2023-03-10T15:06:04.964Z,98193.31
2023-03-10T15:08:32.832Z,98183.09
2023-03-10T15:11:01.969Z,98175.19
2023-03-10T15:13:31.400Z,98169.88
2023-03-10T15:15:59.583Z,98159.63
2023-03-10T15:18:28.194Z,98153.22
2023-03-10T15:21:01.633Z,98153.19
2023-03-10T15:23:31.502Z,98155.88
2023-03-10T15:25:59.726Z,98160.78
2023-03-10T15:28:28.049Z,98153.94
2023-03-10T15:30:55.905Z,98146.00
2023-03-10T15:33:24.318Z,98145.25
2023-03-10T15:35:53.417Z,98149.81
2023-03-10T15:38:21.289Z,98140.34
2023-03-10T15:40:49.000Z,98149.03
2023-03-10T15:43:16.549Z,98150.22
2023-03-10T15:45:52.135Z,98156.63
2023-03-10T15:48:19.854Z,98148.66
2023-03-10T15:50:49.949Z,98138.84
2023-03-10T15:53:17.691Z,98130.88
2023-03-10T15:55:45.433Z,98132.81
2023-03-10T15:58:13.942Z,98135.81
2023-03-10T16:00:43.932Z,98134.75
2023-03-10T16:03:18.063Z,98138.16
2023-03-10T16:05:49.463Z,98128.31
2023-03-10T16:08:19.300Z,98129.47
2023-03-10T16:10:55.595Z,98129.13
2023-03-10T16:13:23.902Z,98120.06
2023-03-10T16:15:52.803Z,98119.69
2023-03-10T16:18:20.628Z,98118.53
2023-03-10T16:20:58.709Z,98115.91
2023-03-10T16:23:29.508Z,98113.63
2023-03-10T16:26:16.780Z,98121.94
2023-03-10T16:28:49.300Z,98124.94
2023-03-10T16:31:20.090Z,98124.19
2023-03-10T16:33:53.826Z,98117.00
2023-03-10T16:36:26.296Z,98112.47
2023-03-10T16:38:54.410Z,98110.22
2023-03-10T16:41:23.308Z,98117.38
2023-03-10T16:43:51.288Z,98117.34
2023-03-10T16:46:25.615Z,98118.47
2023-03-10T16:48:57.466Z,98122.97
2023-03-10T16:51:38.036Z,98117.69
2023-03-10T16:54:19.805Z,98116.94
2023-03-10T16:56:51.625Z,98118.44
2023-03-10T16:59:27.698Z,98123.69
2023-03-10T17:01:58.491Z,98119.19
2023-03-10T17:04:28.242Z,98123.31
2023-03-10T17:06:58.392Z,98127.38
2023-03-10T17:09:35.403Z,98129.19
2023-03-10T17:12:05.959Z,98129.59
2023-03-10T17:14:34.083Z,98125.03
2023-03-10T17:17:02.742Z,98126.53
2023-03-10T17:19:30.627Z,98117.00
2023-03-10T17:22:01.689Z,98104.59
2023-03-10T17:24:33.362Z,98101.53
2023-03-10T17:27:03.530Z,98112.41
2023-03-10T17:29:51.396Z,98105.56
2023-03-10T17:32:22.037Z,98102.97
2023-03-10T17:34:54.403Z,98107.44
2023-03-10T17:37:23.015Z,98094.88
2023-03-10T17:39:52.976Z,98097.88
2023-03-10T17:42:22.534Z,98099.75
2023-03-10T17:44:50.349Z,98098.22
2023-03-10T17:47:24.607Z,98110.19
2023-03-10T17:50:00.596Z,98109.34
2023-03-10T17:52:35.624Z,98103.63
2023-03-10T17:55:06.083Z,98111.53
2023-03-10T17:57:36.512Z,98106.00
2023-03-10T18:00:08.535Z,98106.66
2023-03-10T18:02:41.690Z,98107.41
2023-03-10T18:05:12.448Z,98112.97
2023-03-10T18:07:41.547Z,98106.91
2023-03-10T18:10:13.799Z,98094.13
2023-03-10T18:12:46.293Z,98104.28
2023-03-10T18:15:14.997Z,98101.22
2023-03-10T18:17:42.918Z,98105.31
2023-03-10T18:20:19.648Z,98102.22
2023-03-10T18:22:53.980Z,98103.66
2023-03-10T18:25:24.114Z,98108.25
2023-03-10T18:27:51.796Z,98108.25
2023-03-10T18:30:21.413Z,98088.53
2023-03-10T18:32:54.885Z,98086.66
2023-03-10T18:35:29.040Z,98091.94
2023-03-10T18:37:59.884Z,98091.88
2023-03-10T18:43:21.650Z,98095.81
2023-03-10T18:45:51.073Z,98098.69
2023-03-10T18:48:21.116Z,98111.09
2023-03-10T18:50:51.844Z,98105.06
2023-03-10T18:53:21.130Z,98093.75
2023-03-10T18:55:49.614Z,98096.47
2023-03-10T18:58:17.684Z,98102.19
2023-03-10T19:00:51.972Z,98094.22
2023-03-10T19:03:21.105Z,98089.56
2023-03-10T19:05:57.290Z,98081.63
2023-03-10T19:08:31.541Z,98087.81
2023-03-10T19:11:26.682Z,98100.41
2023-03-10T19:13:58.262Z,98091.59
2023-03-10T19:16:26.923Z,98090.84
2023-03-10T19:18:55.084Z,98078.75
2023-03-10T19:21:23.290Z,98077.13
2023-03-10T19:23:53.088Z,98074.56
2023-03-10T19:26:21.948Z,98078.63
2023-03-10T19:28:49.872Z,98082.41
2023-03-10T19:31:21.336Z,98083.06
2023-03-10T19:33:50.440Z,98084.84
2023-03-10T19:36:18.118Z,98084.31
2023-03-10T19:38:46.424Z,98084.75
2023-03-10T19:41:17.698Z,98079.06
2023-03-10T19:43:48.987Z,98067.78
2023-03-10T19:46:23.081Z,98066.63
2023-03-10T19:48:51.262Z,98069.25
2023-03-10T19:51:51.559Z,98062.44
2023-03-10T19:54:22.655Z,98071.03
2023-03-10T19:56:52.643Z,98062.78
2023-03-10T19:59:24.720Z,98057.50
2023-03-10T20:01:52.406Z,98046.88
2023-03-10T20:04:21.645Z,98043.75
2023-03-10T20:06:51.302Z,98032.19
2023-03-10T20:09:20.462Z,98032.53
2023-03-10T20:11:48.115Z,98023.88
2023-03-10T20:14:15.777Z,98026.41
2023-03-10T20:16:45.070Z,98028.03
2023-03-10T20:19:19.825Z,98030.25
2023-03-10T20:21:49.073Z,98026.06
2023-03-10T20:24:17.913Z,98006.47
2023-03-10T20:26:47.344Z,98004.97
2023-03-10T20:29:15.454Z,98012.00
2023-03-10T20:31:51.099Z,98010.50
2023-03-10T20:34:22.159Z,98013.09
2023-03-10T20:36:52.134Z,98007.03
2023-03-10T20:39:20.204Z,98013.00
2023-03-10T20:41:48.027Z,98020.44
2023-03-10T20:44:17.759Z,98013.31
2023-03-10T20:46:46.997Z,98008.81
2023-03-10T20:49:17.224Z,98004.56
2023-03-10T20:51:49.204Z,97999.84
2023-03-10T20:54:18.294Z,97994.34
2023-03-10T20:56:50.810Z,98006.44
2023-03-10T20:59:19.047Z,98000.81
2023-03-10T21:01:48.270Z,98008.97
2023-03-10T21:04:20.371Z,98013.78
2023-03-10T21:06:49.680Z,98007.34
2023-03-10T21:09:19.460Z,98003.06
2023-03-10T21:11:56.069Z,97984.94
2023-03-10T21:14:26.216Z,97987.59
2023-03-10T21:16:56.370Z,97977.09
2023-03-10T21:19:33.106Z,97974.22
2023-03-10T21:22:03.281Z,97965.09
2023-03-10T21:24:33.038Z,97967.41
2023-03-10T21:27:01.315Z,97969.66
2023-03-10T21:29:30.565Z,97969.38
2023-03-10T21:32:02.454Z,97957.22
2023-03-10T21:34:33.182Z,97961.97
2023-03-10T21:37:01.090Z,97967.31
2023-03-10T21:39:28.670Z,97966.94
2023-03-10T21:41:56.802Z,97957.66
2023-03-10T21:44:24.305Z,97949.97
2023-03-10T21:46:53.342Z,97949.50
2023-03-10T21:49:22.064Z,97961.50
2023-03-10T21:51:49.714Z,97964.88
2023-03-10T21:54:17.254Z,97962.66
2023-03-10T21:56:45.116Z,97950.72
2023-03-10T21:59:14.003Z,97936.75
2023-03-10T22:01:43.319Z,97913.53
2023-03-10T22:04:14.421Z,97905.38
2023-03-10T22:06:42.073Z,97900.66
2023-03-10T22:09:11.042Z,97893.25
2023-03-10T22:11:41.800Z,97896.97
2023-03-10T22:14:11.186Z,97895.50
2023-03-10T22:16:38.743Z,97901.53
2023-03-10T22:19:06.315Z,97906.56
2023-03-10T22:21:33.779Z,97895.25
2023-03-10T22:24:03.299Z,97891.72
2023-03-10T22:26:30.785Z,97886.50
2023-03-10T22:29:00.781Z,97871.56
2023-03-10T22:31:28.912Z,97869.03
2023-03-10T22:33:56.400Z,97870.19
2023-03-10T22:36:25.367Z,97857.00
2023-03-10T22:38:53.239Z,97845.97
2023-03-10T22:41:20.686Z,97848.44
2023-03-10T22:43:48.309Z,97839.03
2023-03-10T22:46:18.404Z,97831.53
2023-03-10T22:48:45.959Z,97824.78
2023-03-10T22:51:17.477Z,97821.56
2023-03-10T22:53:47.101Z,97830.53
2023-03-10T22:56:14.675Z,97827.34
2023-03-10T22:58:42.416Z,97825.03
2023-03-10T23:01:10.414Z,97826.53
2023-03-10T23:03:37.857Z,97816.72
2023-03-10T23:06:07.399Z,97825.94
2023-03-10T23:08:37.580Z,97826.63
2023-03-10T23:11:11.610Z,97817.38
2023-03-10T23:13:39.670Z,97803.41
2023-03-10T23:16:07.732Z,97804.50
2023-03-10T23:18:35.419Z,97793.00
2023-03-10T23:21:04.310Z,97801.56
2023-03-10T23:23:32.059Z,97794.38
2023-03-10T23:25:59.944Z,97793.56
2023-03-10T23:28:27.746Z,97782.28
2023-03-10T23:30:55.764Z,97786.06
2023-03-10T23:33:25.111Z,97780.31
2023-03-10T23:35:54.447Z,97786.75
2023-03-10T23:38:24.880Z,97779.94
2023-03-10T23:40:53.672Z,97775.53
2023-03-10T23:43:21.137Z,97768.78
2023-03-10T23:45:48.654Z,97776.94
2023-03-10T23:48:19.351Z,97759.59
2023-03-10T23:50:48.778Z,97750.72
2023-03-10T23:53:20.783Z,97751.25
2023-03-10T23:55:49.041Z,97754.16
2023-03-10T23:58:19.380Z,97750.38
